sensor_id;sensor_type;location;lat;lon;timestamp;pressure;altitude;pressure_sealevel;temperature;humidity
18167;BME280;9208;42.688;23.404;2022-12-18T00:01:17;96236.81;;;8.96;100.00
18167;BME280;9208;42.688;23.404;2022-12-18T00:03:43;96237.69;;;8.93;100.00
18167;BME280;9208;42.688;23.404;2022-12-18T00:06:09;96234.66;;;8.91;100.00
18167;BME280;9208;42.688;23.404;2022-12-18T00:08:35;96242.09;;;8.91;100.00
18167;BME280;9208;42.688;23.404;2022-12-18T00:11:05;96238.88;;;8.83;100.00
18167;BME280;9208;42.688;23.404;2022-12-18T00:13:31;96251.75;;;8.83;100.00
18167;BME280;9208;42.688;23.404;2022-12-18T00:16:04;96252.53;;;8.83;100.00
18167;BME280;9208;42.688;23.404;2022-12-18T00:18:31;96241.81;;;8.67;100.00
18167;BME280;9208;42.688;23.404;2022-12-18T00:21:00;96254.72;;;8.67;100.00
18167;BME280;9208;42.688;23.404;2022-12-18T00:23:27;96256.94;;;8.59;100.00
18167;BME280;9208;42.688;23.404;2022-12-18T00:25:53;96262.91;;;8.67;100.00
18167;BME280;9208;42.688;23.404;2022-12-18T00:28:18;96268.19;;;8.61;100.00
18167;BME280;9208;42.688;23.404;2022-12-18T00:30:44;96256.16;;;8.59;100.00
18167;BME280;9208;42.688;23.404;2022-12-18T00:33:09;96259.47;;;8.54;100.00
18167;BME280;9208;42.688;23.404;2022-12-18T00:35:35;96270.28;;;8.57;100.00
18167;BME280;9208;42.688;23.404;2022-12-18T00:38:00;96260.13;;;8.58;100.00
18167;BME280;9208;42.688;23.404;2022-12-18T00:40:26;96268.13;;;8.52;100.00
18167;BME280;9208;42.688;23.404;2022-12-18T00:42:51;96279.41;;;8.42;100.00
18167;BME280;9208;42.688;23.404;2022-12-18T00:45:28;96274.09;;;8.38;100.00
18167;BME280;9208;42.688;23.404;2022-12-18T00:47:58;96281.06;;;8.39;100.00
18167;BME280;9208;42.688;23.404;2022-12-18T00:50:24;96276.63;;;8.33;100.00
18167;BME280;9208;42.688;23.404;2022-12-18T00:52:50;96278.84;;;8.25;100.00
18167;BME280;9208;42.688;23.404;2022-12-18T00:55:16;96282.22;;;8.29;100.00
18167;BME280;9208;42.688;23.404;2022-12-18T00:57:42;96288.88;;;8.28;100.00
18167;BME280;9208;42.688;23.404;2022-12-18T01:00:11;96278.53;;;8.23;100.00
18167;BME280;9208;42.688;23.404;2022-12-18T01:02:37;96291.19;;;8.30;100.00
18167;BME280;9208;42.688;23.404;2022-12-18T01:05:03;96288.66;;;8.23;100.00
18167;BME280;9208;42.688;23.404;2022-12-18T01:07:29;96300.03;;;8.21;100.00
18167;BME280;9208;42.688;23.404;2022-12-18T01:09:54;96298.09;;;8.09;100.00
18167;BME280;9208;42.688;23.404;2022-12-18T01:12:19;96302.22;;;8.14;100.00
18167;BME280;9208;42.688;23.404;2022-12-18T01:14:45;96298.53;;;8.08;100.00
18167;BME280;9208;42.688;23.404;2022-12-18T01:17:10;96302.34;;;8.10;100.00
18167;BME280;9208;42.688;23.404;2022-12-18T01:19:36;96307.47;;;8.08;100.00
18167;BME280;9208;42.688;23.404;2022-12-18T01:22:02;96305.72;;;8.02;100.00
18167;BME280;9208;42.688;23.404;2022-12-18T01:24:27;96304.84;;;8.05;100.00
18167;BME280;9208;42.688;23.404;2022-12-18T01:26:52;96306.28;;;8.09;100.00
18167;BME280;9208;42.688;23.404;2022-12-18T01:29:18;96305.72;;;8.02;100.00
18167;BME280;9208;42.688;23.404;2022-12-18T01:31:44;96312.53;;;7.97;100.00
18167;BME280;9208;42.688;23.404;2022-12-18T01:34:09;96311.31;;;7.98;100.00
18167;BME280;9208;42.688;23.404;2022-12-18T01:36:37;96310.47;;;7.89;100.00
18167;BME280;9208;42.688;23.404;2022-12-18T01:39:06;96300.97;;;7.81;100.00
18167;BME280;9208;42.688;23.404;2022-12-18T01:41:33;96322.69;;;7.84;100.00
18167;BME280;9208;42.688;23.404;2022-12-18T01:49:52;96327.50;;;7.80;100.00
18167;BME280;9208;42.688;23.404;2022-12-18T01:52:18;96321.38;;;7.76;100.00
18167;BME280;9208;42.688;23.404;2022-12-18T01:54:46;96330.25;;;7.68;100.00
18167;BME280;9208;42.688;23.404;2022-12-18T01:57:13;96331.09;;;7.65;100.00
18167;BME280;9208;42.688;23.404;2022-12-18T01:59:38;96329.59;;;7.64;100.00
18167;BME280;9208;42.688;23.404;2022-12-18T02:02:07;96328.16;;;7.59;100.00
18167;BME280;9208;42.688;23.404;2022-12-18T02:04:33;96339.06;;;7.59;100.00
18167;BME280;9208;42.688;23.404;2022-12-18T02:10:01;96339.63;;;7.54;100.00
18167;BME280;9208;42.688;23.404;2022-12-18T02:12:44;96348.03;;;7.47;100.00
18167;BME280;9208;42.688;23.404;2022-12-18T02:15:25;96348.47;;;7.46;100.00
18167;BME280;9208;42.688;23.404;2022-12-18T02:17:59;96356.22;;;7.47;100.00
18167;BME280;9208;42.688;23.404;2022-12-18T02:20:54;96365.06;;;7.51;100.00
18167;BME280;9208;42.688;23.404;2022-12-18T02:28:45;96363.28;;;7.32;100.00
18167;BME280;9208;42.688;23.404;2022-12-18T02:31:15;96362.84;;;7.34;100.00
18167;BME280;9208;42.688;23.404;2022-12-18T02:33:44;96361.09;;;7.27;100.00
18167;BME280;9208;42.688;23.404;2022-12-18T02:36:11;96354.47;;;7.28;100.00
18167;BME280;9208;42.688;23.404;2022-12-18T02:38:38;96358.69;;;7.29;100.00
18167;BME280;9208;42.688;23.404;2022-12-18T02:41:05;96364.16;;;7.29;100.00
18167;BME280;9208;42.688;23.404;2022-12-18T02:43:31;96369.19;;;7.31;100.00
18167;BME280;9208;42.688;23.404;2022-12-18T02:45:59;96379.84;;;7.25;100.00
18167;BME280;9208;42.688;23.404;2022-12-18T02:48:34;96383.50;;;7.35;100.00
18167;BME280;9208;42.688;23.404;2022-12-18T02:51:22;96382.91;;;7.27;100.00
18167;BME280;9208;42.688;23.404;2022-12-18T02:54:22;96371.25;;;7.27;100.00
18167;BME280;9208;42.688;23.404;2022-12-18T02:56:52;96375.47;;;7.15;100.00
18167;BME280;9208;42.688;23.404;2022-12-18T02:59:25;96379.06;;;7.12;100.00
18167;BME280;9208;42.688;23.404;2022-12-18T03:02:00;96381.47;;;7.10;100.00
18167;BME280;9208;42.688;23.404;2022-12-18T03:04:40;96392.03;;;7.08;100.00
18167;BME280;9208;42.688;23.404;2022-12-18T03:07:16;96392.31;;;6.98;100.00
18167;BME280;9208;42.688;23.404;2022-12-18T03:09:50;96396.59;;;6.99;100.00
18167;BME280;9208;42.688;23.404;2022-12-18T03:12:40;96400.84;;;7.00;100.00
18167;BME280;9208;42.688;23.404;2022-12-18T03:17:46;96402.53;;;6.94;100.00
18167;BME280;9208;42.688;23.404;2022-12-18T03:20:17;96401.13;;;6.89;100.00
18167;BME280;9208;42.688;23.404;2022-12-18T03:22:47;96398.19;;;6.96;100.00
18167;BME280;9208;42.688;23.404;2022-12-18T03:25:16;96415.00;;;6.95;100.00
18167;BME280;9208;42.688;23.404;2022-12-18T03:27:47;96408.53;;;6.89;100.00
18167;BME280;9208;42.688;23.404;2022-12-18T03:30:15;96413.91;;;6.92;100.00
18167;BME280;9208;42.688;23.404;2022-12-18T03:33:18;96418.16;;;6.93;100.00
18167;BME280;9208;42.688;23.404;2022-12-18T03:35:45;96424.34;;;6.94;100.00
18167;BME280;9208;42.688;23.404;2022-12-18T03:38:12;96431.25;;;6.98;100.00
18167;BME280;9208;42.688;23.404;2022-12-18T03:46:11;96436.22;;;6.87;100.00
18167;BME280;9208;42.688;23.404;2022-12-18T03:48:48;96440.06;;;6.90;100.00
18167;BME280;9208;42.688;23.404;2022-12-18T03:51:24;96459.47;;;6.92;100.00
18167;BME280;9208;42.688;23.404;2022-12-18T03:54:02;96458.94;;;6.97;100.00
18167;BME280;9208;42.688;23.404;2022-12-18T03:56:32;96452.81;;;6.93;100.00
18167;BME280;9208;42.688;23.404;2022-12-18T03:58:59;96456.63;;;6.95;100.00
18167;BME280;9208;42.688;23.404;2022-12-18T04:01:36;96456.63;;;6.95;100.00
18167;BME280;9208;42.688;23.404;2022-12-18T04:04:03;96461.78;;;6.93;100.00
18167;BME280;9208;42.688;23.404;2022-12-18T04:06:30;96460.16;;;6.96;100.00
18167;BME280;9208;42.688;23.404;2022-12-18T04:08:59;96462.03;;;6.99;100.00
18167;BME280;9208;42.688;23.404;2022-12-18T04:11:25;96454.69;;;6.96;100.00
18167;BME280;9208;42.688;23.404;2022-12-18T04:13:55;96454.88;;;6.89;100.00
18167;BME280;9208;42.688;23.404;2022-12-18T04:16:21;96462.38;;;6.85;100.00
18167;BME280;9208;42.688;23.404;2022-12-18T04:18:46;96467.81;;;6.85;100.00
18167;BME280;9208;42.688;23.404;2022-12-18T04:21:11;96473.78;;;6.80;100.00
18167;BME280;9208;42.688;23.404;2022-12-18T04:23:37;96474.56;;;6.80;100.00
18167;BME280;9208;42.688;23.404;2022-12-18T04:26:02;96480.63;;;6.72;100.00
18167;BME280;9208;42.688;23.404;2022-12-18T04:28:28;96480.53;;;6.75;100.00
18167;BME280;9208;42.688;23.404;2022-12-18T04:30:53;96483.59;;;6.77;100.00
18167;BME280;9208;42.688;23.404;2022-12-18T04:33:19;96492.69;;;6.71;100.00
18167;BME280;9208;42.688;23.404;2022-12-18T04:35:45;96490.66;;;6.75;100.00
18167;BME280;9208;42.688;23.404;2022-12-18T04:38:10;96484.38;;;6.78;100.00
18167;BME280;9208;42.688;23.404;2022-12-18T04:40:37;96494.25;;;6.72;100.00
18167;BME280;9208;42.688;23.404;2022-12-18T04:43:03;96499.88;;;6.65;100.00
18167;BME280;9208;42.688;23.404;2022-12-18T04:45:30;96499.63;;;6.75;100.00
18167;BME280;9208;42.688;23.404;2022-12-18T04:47:57;96507.53;;;6.70;100.00
18167;BME280;9208;42.688;23.404;2022-12-18T04:50:23;96502.50;;;6.68;100.00
18167;BME280;9208;42.688;23.404;2022-12-18T04:52:49;96509.94;;;6.68;100.00
18167;BME280;9208;42.688;23.404;2022-12-18T04:55:14;96518.53;;;6.66;100.00
18167;BME280;9208;42.688;23.404;2022-12-18T04:57:40;96519.72;;;6.65;100.00
18167;BME280;9208;42.688;23.404;2022-12-18T05:00:06;96524.41;;;6.65;100.00
18167;BME280;9208;42.688;23.404;2022-12-18T05:02:32;96528.13;;;6.71;100.00
18167;BME280;9208;42.688;23.404;2022-12-18T05:04:58;96519.38;;;6.63;100.00
18167;BME280;9208;42.688;23.404;2022-12-18T05:07:24;96533.41;;;6.62;100.00
18167;BME280;9208;42.688;23.404;2022-12-18T05:09:49;96533.59;;;6.55;100.00
18167;BME280;9208;42.688;23.404;2022-12-18T05:12:15;96525.00;;;6.56;100.00
18167;BME280;9208;42.688;23.404;2022-12-18T05:14:40;96540.66;;;6.52;100.00
18167;BME280;9208;42.688;23.404;2022-12-18T05:17:06;96540.31;;;6.50;100.00
18167;BME280;9208;42.688;23.404;2022-12-18T05:19:32;96544.22;;;6.49;100.00
18167;BME280;9208;42.688;23.404;2022-12-18T05:21:57;96544.56;;;6.51;100.00
18167;BME280;9208;42.688;23.404;2022-12-18T05:24:22;96553.22;;;6.46;100.00
18167;BME280;9208;42.688;23.404;2022-12-18T05:26:48;96557.25;;;6.42;100.00
18167;BME280;9208;42.688;23.404;2022-12-18T05:29:16;96551.69;;;6.45;100.00
18167;BME280;9208;42.688;23.404;2022-12-18T05:31:42;96567.28;;;6.45;100.00
18167;BME280;9208;42.688;23.404;2022-12-18T05:34:07;96566.53;;;6.44;100.00
18167;BME280;9208;42.688;23.404;2022-12-18T05:36:33;96568.56;;;6.40;100.00
18167;BME280;9208;42.688;23.404;2022-12-18T05:38:58;96573.41;;;6.49;100.00
18167;BME280;9208;42.688;23.404;2022-12-18T05:41:25;96579.03;;;6.42;100.00
18167;BME280;9208;42.688;23.404;2022-12-18T05:43:51;96580.97;;;6.41;100.00
18167;BME280;9208;42.688;23.404;2022-12-18T05:46:17;96583.97;;;6.47;100.00
18167;BME280;9208;42.688;23.404;2022-12-18T05:48:44;96586.59;;;6.50;100.00
18167;BME280;9208;42.688;23.404;2022-12-18T05:51:13;96580.97;;;6.41;100.00
18167;BME280;9208;42.688;23.404;2022-12-18T05:53:40;96595.00;;;6.40;100.00
18167;BME280;9208;42.688;23.404;2022-12-18T05:56:11;96589.09;;;6.45;100.00
18167;BME280;9208;42.688;23.404;2022-12-18T05:58:37;96601.94;;;6.44;100.00
18167;BME280;9208;42.688;23.404;2022-12-18T06:01:21;96598.38;;;6.47;100.00
18167;BME280;9208;42.688;23.404;2022-12-18T06:03:47;96601.56;;;6.42;100.00
18167;BME280;9208;42.688;23.404;2022-12-18T06:06:22;96614.03;;;6.43;100.00
18167;BME280;9208;42.688;23.404;2022-12-18T06:08:49;96613.34;;;6.39;100.00
18167;BME280;9208;42.688;23.404;2022-12-18T06:11:24;96617.66;;;6.37;100.00
18167;BME280;9208;42.688;23.404;2022-12-18T06:13:54;96619.19;;;6.38;100.00
18167;BME280;9208;42.688;23.404;2022-12-18T06:16:20;96622.63;;;6.42;100.00
18167;BME280;9208;42.688;23.404;2022-12-18T06:18:46;96621.13;;;6.37;100.00
18167;BME280;9208;42.688;23.404;2022-12-18T06:21:13;96619.28;;;6.34;100.00
18167;BME280;9208;42.688;23.404;2022-12-18T06:23:38;96628.97;;;6.35;100.00
18167;BME280;9208;42.688;23.404;2022-12-18T06:26:05;96628.97;;;6.35;100.00
18167;BME280;9208;42.688;23.404;2022-12-18T06:28:31;96633.88;;;6.24;100.00
18167;BME280;9208;42.688;23.404;2022-12-18T06:30:57;96631.50;;;6.26;100.00
18167;BME280;9208;42.688;23.404;2022-12-18T06:33:26;96638.56;;;6.24;100.00
18167;BME280;9208;42.688;23.404;2022-12-18T06:35:52;96643.50;;;6.29;100.00
18167;BME280;9208;42.688;23.404;2022-12-18T06:38:17;96650.91;;;6.28;100.00
18167;BME280;9208;42.688;23.404;2022-12-18T06:40:43;96657.91;;;6.29;100.00
18167;BME280;9208;42.688;23.404;2022-12-18T06:43:08;96653.78;;;6.21;100.00
18167;BME280;9208;42.688;23.404;2022-12-18T06:45:34;96652.72;;;6.15;100.00
18167;BME280;9208;42.688;23.404;2022-12-18T06:47:59;96652.06;;;6.11;100.00
18167;BME280;9208;42.688;23.404;2022-12-18T06:50:25;96659.06;;;6.09;100.00
18167;BME280;9208;42.688;23.404;2022-12-18T06:52:50;96659.78;;;6.13;100.00
18167;BME280;9208;42.688;23.404;2022-12-18T06:55:16;96664.31;;;6.19;100.00
18167;BME280;9208;42.688;23.404;2022-12-18T06:57:41;96668.72;;;6.13;100.00
18167;BME280;9208;42.688;23.404;2022-12-18T07:00:11;96661.75;;;6.12;100.00
18167;BME280;9208;42.688;23.404;2022-12-18T07:02:37;96663.69;;;6.12;100.00
18167;BME280;9208;42.688;23.404;2022-12-18T07:05:03;96667.19;;;6.12;100.00
18167;BME280;9208;42.688;23.404;2022-12-18T07:07:28;96668.22;;;6.18;100.00
18167;BME280;9208;42.688;23.404;2022-12-18T07:09:54;96680.31;;;6.17;100.00
18167;BME280;9208;42.688;23.404;2022-12-18T07:12:19;96680.72;;;6.16;100.00
18167;BME280;9208;42.688;23.404;2022-12-18T07:14:45;96686.31;;;6.28;100.00
18167;BME280;9208;42.688;23.404;2022-12-18T07:17:10;96679.19;;;6.34;100.00
18167;BME280;9208;42.688;23.404;2022-12-18T07:19:36;96687.00;;;6.32;100.00
18167;BME280;9208;42.688;23.404;2022-12-18T07:22:02;96691.41;;;6.26;100.00
18167;BME280;9208;42.688;23.404;2022-12-18T07:24:27;96683.25;;;6.26;100.00
18167;BME280;9208;42.688;23.404;2022-12-18T07:26:53;96692.44;;;6.32;100.00
18167;BME280;9208;42.688;23.404;2022-12-18T07:29:19;96692.94;;;6.27;100.00
18167;BME280;9208;42.688;23.404;2022-12-18T07:31:44;96691.81;;;6.25;100.00
18167;BME280;9208;42.688;23.404;2022-12-18T07:34:11;96691.41;;;6.26;100.00
18167;BME280;9208;42.688;23.404;2022-12-18T07:36:37;96699.09;;;6.31;100.00
18167;BME280;9208;42.688;23.404;2022-12-18T07:39:03;96701.31;;;6.36;100.00
18167;BME280;9208;42.688;23.404;2022-12-18T07:41:28;96699.91;;;6.28;100.00
18167;BME280;9208;42.688;23.404;2022-12-18T07:43:54;96701.19;;;6.24;100.00
18167;BME280;9208;42.688;23.404;2022-12-18T07:46:19;96708.09;;;6.28;100.00
18167;BME280;9208;42.688;23.404;2022-12-18T07:48:45;96713.91;;;6.30;100.00
18167;BME280;9208;42.688;23.404;2022-12-18T07:51:11;96704.53;;;6.31;100.00
18167;BME280;9208;42.688;23.404;2022-12-18T07:53:37;96719.25;;;6.34;100.00
18167;BME280;9208;42.688;23.404;2022-12-18T07:56:06;96712.28;;;6.33;100.00
18167;BME280;9208;42.688;23.404;2022-12-18T07:58:32;96722.06;;;6.30;100.00
18167;BME280;9208;42.688;23.404;2022-12-18T08:01:09;96720.03;;;6.34;100.00
18167;BME280;9208;42.688;23.404;2022-12-18T08:03:35;96726.25;;;6.35;100.00
18167;BME280;9208;42.688;23.404;2022-12-18T08:06:04;96727.72;;;6.39;100.00
18167;BME280;9208;42.688;23.404;2022-12-18T08:08:30;96734.06;;;6.33;100.00
18167;BME280;9208;42.688;23.404;2022-12-18T08:10:56;96740.34;;;6.30;100.00
18167;BME280;9208;42.688;23.404;2022-12-18T08:13:22;96738.91;;;6.25;100.00
18167;BME280;9208;42.688;23.404;2022-12-18T08:16:04;96757.97;;;6.25;100.00
18167;BME280;9208;42.688;23.404;2022-12-18T08:18:32;96740.34;;;6.30;100.00
18167;BME280;9208;42.688;23.404;2022-12-18T08:21:08;96749.31;;;6.30;100.00
18167;BME280;9208;42.688;23.404;2022-12-18T08:23:34;96752.84;;;6.27;100.00
18167;BME280;9208;42.688;23.404;2022-12-18T08:26:00;96758.94;;;6.35;100.00
18167;BME280;9208;42.688;23.404;2022-12-18T08:28:26;96763.25;;;6.32;100.00
18167;BME280;9208;42.688;23.404;2022-12-18T08:30:52;96768.00;;;6.28;100.00
18167;BME280;9208;42.688;23.404;2022-12-18T08:33:17;96766.06;;;6.29;100.00
18167;BME280;9208;42.688;23.404;2022-12-18T08:35:46;96767.94;;;6.32;100.00
18167;BME280;9208;42.688;23.404;2022-12-18T08:38:11;96771.00;;;6.34;100.00
18167;BME280;9208;42.688;23.404;2022-12-18T08:40:37;96765.69;;;6.27;100.00
18167;BME280;9208;42.688;23.404;2022-12-18T08:43:02;96777.03;;;6.25;100.00
18167;BME280;9208;42.688;23.404;2022-12-18T08:45:46;96773.81;;;6.30;100.00
18167;BME280;9208;42.688;23.404;2022-12-18T08:48:11;96775.75;;;6.30;100.00
18167;BME280;9208;42.688;23.404;2022-12-18T08:50:37;96774.63;;;6.27;100.00
18167;BME280;9208;42.688;23.404;2022-12-18T08:53:03;96775.34;;;6.31;100.00
18167;BME280;9208;42.688;23.404;2022-12-18T08:55:29;96783.03;;;6.36;100.00
18167;BME280;9208;42.688;23.404;2022-12-18T08:57:54;96776.88;;;6.32;100.00
18167;BME280;9208;42.688;23.404;2022-12-18T09:00:20;96779.97;;;6.34;100.00
18167;BME280;9208;42.688;23.404;2022-12-18T09:02:45;96779.97;;;6.34;100.00
18167;BME280;9208;42.688;23.404;2022-12-18T09:05:11;96777.66;;;6.33;100.00
18167;BME280;9208;42.688;23.404;2022-12-18T09:07:36;96765.69;;;6.27;100.00
18167;BME280;9208;42.688;23.404;2022-12-18T09:10:02;96776.25;;;6.25;100.00
18167;BME280;9208;42.688;23.404;2022-12-18T09:12:28;96780.78;;;6.31;100.00
18167;BME280;9208;42.688;23.404;2022-12-18T09:14:53;96773.81;;;6.30;100.00
18167;BME280;9208;42.688;23.404;2022-12-18T09:17:19;96769.91;;;6.31;100.00
18167;BME280;9208;42.688;23.404;2022-12-18T09:19:44;96776.16;;;6.28;100.00
18167;BME280;9208;42.688;23.404;2022-12-18T09:22:09;96776.13;;;6.32;100.00
18167;BME280;9208;42.688;23.404;2022-12-18T09:24:39;96777.34;;;6.27;100.00
18167;BME280;9208;42.688;23.404;2022-12-18T09:27:04;96777.28;;;6.31;100.00
18167;BME280;9208;42.688;23.404;2022-12-18T09:29:30;96777.25;;;6.34;100.00
18167;BME280;9208;42.688;23.404;2022-12-18T09:31:55;96773.41;;;6.32;100.00
18167;BME280;9208;42.688;23.404;2022-12-18T09:34:21;96779.19;;;6.34;100.00
18167;BME280;9208;42.688;23.404;2022-12-18T09:36:47;96781.91;;;6.34;100.00
18167;BME280;9208;42.688;23.404;2022-12-18T09:39:13;96784.56;;;6.37;100.00
18167;BME280;9208;42.688;23.404;2022-12-18T09:41:51;96786.13;;;6.38;100.00
18167;BME280;9208;42.688;23.404;2022-12-18T09:47:11;96789.47;;;6.46;100.00
18167;BME280;9208;42.688;23.404;2022-12-18T09:49:52;96795.75;;;6.43;100.00
18167;BME280;9208;42.688;23.404;2022-12-18T09:52:49;96788.34;;;6.43;100.00
18167;BME280;9208;42.688;23.404;2022-12-18T09:55:42;96777.78;;;6.45;100.00
18167;BME280;9208;42.688;23.404;2022-12-18T09:58:30;96785.22;;;6.45;100.00
18167;BME280;9208;42.688;23.404;2022-12-18T10:00:57;96782.63;;;6.38;100.00
18167;BME280;9208;42.688;23.404;2022-12-18T10:03:23;96785.66;;;6.40;100.00
18167;BME280;9208;42.688;23.404;2022-12-18T10:08:42;96776.59;;;6.46;100.00
18167;BME280;9208;42.688;23.404;2022-12-18T10:11:34;96770.72;;;6.48;100.00
18167;BME280;9208;42.688;23.404;2022-12-18T10:16:53;96777.19;;;6.57;100.00
18167;BME280;9208;42.688;23.404;2022-12-18T10:26:56;96784.06;;;6.62;100.00
18167;BME280;9208;42.688;23.404;2022-12-18T10:29:25;96779.19;;;6.53;100.00
18167;BME280;9208;42.688;23.404;2022-12-18T10:31:50;96782.25;;;6.55;100.00
18167;BME280;9208;42.688;23.404;2022-12-18T10:34:15;96774.44;;;6.57;100.00
18167;BME280;9208;42.688;23.404;2022-12-18T10:36:41;96779.41;;;6.62;100.00
18167;BME280;9208;42.688;23.404;2022-12-18T10:39:22;96773.13;;;6.65;100.00
18167;BME280;9208;42.688;23.404;2022-12-18T10:41:48;96771.44;;;6.71;100.00
18167;BME280;9208;42.688;23.404;2022-12-18T10:44:22;96771.34;;;6.75;100.00
18167;BME280;9208;42.688;23.404;2022-12-18T10:46:50;96772.84;;;6.79;100.00
18167;BME280;9208;42.688;23.404;2022-12-18T10:49:24;96771.56;;;6.84;100.00
18167;BME280;9208;42.688;23.404;2022-12-18T10:51:51;96766.59;;;6.79;100.00
18167;BME280;9208;42.688;23.404;2022-12-18T10:54:30;96766.09;;;6.84;100.00
18167;BME280;9208;42.688;23.404;2022-12-18T10:57:27;96768.91;;;6.80;100.00
18167;BME280;9208;42.688;23.404;2022-12-18T10:59:56;96769.06;;;6.73;100.00
18167;BME280;9208;42.688;23.404;2022-12-18T11:02:34;96767.81;;;6.78;100.00
18167;BME280;9208;42.688;23.404;2022-12-18T11:05:00;96768.31;;;6.73;100.00
18167;BME280;9208;42.688;23.404;2022-12-18T11:07:48;96766.28;;;6.77;100.00
18167;BME280;9208;42.688;23.404;2022-12-18T11:10:19;96772.41;;;6.81;100.00
18167;BME280;9208;42.688;23.404;2022-12-18T11:12:45;96768.84;;;6.84;100.00
18167;BME280;9208;42.688;23.404;2022-12-18T11:15:26;96774.38;;;6.80;100.00
18167;BME280;9208;42.688;23.404;2022-12-18T11:17:52;96764.66;;;6.79;100.00
18167;BME280;9208;42.688;23.404;2022-12-18T11:20:29;96775.06;;;6.84;100.00
18167;BME280;9208;42.688;23.404;2022-12-18T11:23:02;96773.59;;;6.80;100.00
18167;BME280;9208;42.688;23.404;2022-12-18T11:25:28;96782.38;;;6.87;100.00
18167;BME280;9208;42.688;23.404;2022-12-18T11:28:08;96781.53;;;6.90;100.00
18167;BME280;9208;42.688;23.404;2022-12-18T11:33:55;96781.06;;;6.95;100.00
18167;BME280;9208;42.688;23.404;2022-12-18T11:36:23;96774.47;;;6.93;100.00
18167;BME280;9208;42.688;23.404;2022-12-18T11:38:52;96774.91;;;6.91;100.00
18167;BME280;9208;42.688;23.404;2022-12-18T11:41:47;96782.44;;;7.03;100.00
18167;BME280;9208;42.688;23.404;2022-12-18T11:45:08;96784.34;;;7.06;100.00
18167;BME280;9208;42.688;23.404;2022-12-18T11:47:57;96774.06;;;6.94;100.00
18167;BME280;9208;42.688;23.404;2022-12-18T11:50:33;96781.06;;;6.95;100.00
18167;BME280;9208;42.688;23.404;2022-12-18T11:53:03;96777.00;;;6.84;100.00
18167;BME280;9208;42.688;23.404;2022-12-18T12:00:44;96789.59;;;6.97;100.00
18167;BME280;9208;42.688;23.404;2022-12-18T12:11:35;96779.91;;;7.12;100.00
18167;BME280;9208;42.688;23.404;2022-12-18T12:24:39;96784.47;;;6.99;100.00
18167;BME280;9208;42.688;23.404;2022-12-18T12:38:11;96791.22;;;7.11;100.00
18167;BME280;9208;42.688;23.404;2022-12-18T12:40:49;96787.75;;;7.10;100.00
18167;BME280;9208;42.688;23.404;2022-12-18T12:43:36;96794.03;;;7.07;100.00
18167;BME280;9208;42.688;23.404;2022-12-18T12:46:09;96786.56;;;7.11;100.00
18167;BME280;9208;42.688;23.404;2022-12-18T12:48:55;96791.13;;;6.98;100.00
18167;BME280;9208;42.688;23.404;2022-12-18T12:51:35;96788.22;;;7.05;100.00
18167;BME280;9208;42.688;23.404;2022-12-18T12:54:05;96786.28;;;7.06;100.00
18167;BME280;9208;42.688;23.404;2022-12-18T12:56:54;96805.22;;;7.13;100.00
18167;BME280;9208;42.688;23.404;2022-12-18T13:02:46;96801.13;;;7.21;100.00
18167;BME280;9208;42.688;23.404;2022-12-18T13:07:54;96807.88;;;7.16;100.00
18167;BME280;9208;42.688;23.404;2022-12-18T13:10:26;96818.69;;;7.20;100.00
18167;BME280;9208;42.688;23.404;2022-12-18T13:12:56;96812.81;;;7.21;100.00
18167;BME280;9208;42.688;23.404;2022-12-18T13:15:31;96812.22;;;7.14;100.00
18167;BME280;9208;42.688;23.404;2022-12-18T13:20:34;96825.75;;;7.17;100.00
18167;BME280;9208;42.688;23.404;2022-12-18T13:23:01;96829.28;;;7.18;100.00
18167;BME280;9208;42.688;23.404;2022-12-18T13:25:44;96815.03;;;7.10;100.00
18167;BME280;9208;42.688;23.404;2022-12-18T13:28:14;96824.66;;;7.15;100.00
18167;BME280;9208;42.688;23.404;2022-12-18T13:30:43;96838.38;;;7.11;100.00
18167;BME280;9208;42.688;23.404;2022-12-18T13:38:39;96831.72;;;7.12;100.00
18167;BME280;9208;42.688;23.404;2022-12-18T13:41:26;96834.72;;;7.18;100.00
18167;BME280;9208;42.688;23.404;2022-12-18T13:43:54;96838.38;;;7.11;100.00
18167;BME280;9208;42.688;23.404;2022-12-18T13:46:24;96835.28;;;7.09;100.00
18167;BME280;9208;42.688;23.404;2022-12-18T13:49:16;96846.47;;;7.15;100.00
18167;BME280;9208;42.688;23.404;2022-12-18T13:51:51;96850.38;;;7.14;100.00
18167;BME280;9208;42.688;23.404;2022-12-18T13:56:50;96849.34;;;7.08;100.00
18167;BME280;9208;42.688;23.404;2022-12-18T13:59:21;96861.22;;;7.17;100.00
18167;BME280;9208;42.688;23.404;2022-12-18T14:04:25;96855.84;;;7.14;100.00
18167;BME280;9208;42.688;23.404;2022-12-18T14:06:57;96864.09;;;7.10;100.00
18167;BME280;9208;42.688;23.404;2022-12-18T14:09:29;96863.00;;;7.08;100.00
18167;BME280;9208;42.688;23.404;2022-12-18T14:11:55;96872.22;;;7.14;100.00
18167;BME280;9208;42.688;23.404;2022-12-18T14:14:44;96866.41;;;6.92;100.00
18167;BME280;9208;42.688;23.404;2022-12-18T14:17:11;96871.66;;;6.83;100.00
18167;BME280;9208;42.688;23.404;2022-12-18T14:19:47;96872.28;;;6.91;100.00
18167;BME280;9208;42.688;23.404;2022-12-18T14:22:23;96874.44;;;6.99;100.00
18167;BME280;9208;42.688;23.404;2022-12-18T14:27:47;96873.41;;;7.13;100.00
18167;BME280;9208;42.688;23.404;2022-12-18T14:30:27;96877.88;;;7.03;100.00
18167;BME280;9208;42.688;23.404;2022-12-18T14:35:34;96888.91;;;7.16;100.00
18167;BME280;9208;42.688;23.404;2022-12-18T14:40:47;96887.78;;;7.13;100.00
18167;BME280;9208;42.688;23.404;2022-12-18T14:43:16;96884.72;;;7.11;100.00
18167;BME280;9208;42.688;23.404;2022-12-18T14:45:43;96882.13;;;7.04;100.00
18167;BME280;9208;42.688;23.404;2022-12-18T14:51:23;96877.94;;;7.19;100.00
18167;BME280;9208;42.688;23.404;2022-12-18T14:53:55;96877.66;;;7.14;100.00
18167;BME280;9208;42.688;23.404;2022-12-18T14:56:29;96882.63;;;6.99;100.00
18167;BME280;9208;42.688;23.404;2022-12-18T14:59:00;96882.91;;;7.05;100.00
18167;BME280;9208;42.688;23.404;2022-12-18T15:01:30;96885.28;;;7.03;100.00